Time;durP1;ratioP1;P1;durP2;ratioP2;P2;SDS_P1;SDS_P2;PMS_P1;PMS_P2;Temp;Humidity;BMP_temperature;BMP_pressure;BME280_temperature;BME280_humidity;BME280_pressure;Samples;Min_cycle;Max_cycle;Signal;HPM_P1;HPM_P2
2022/10/07 00:02:11;;;;;;;8.13;4.55;;;12.60;23.80;;;;;;7370065;19;20006;-67
2022/10/07 00:04:44;;;;;;;10.35;5.18;;;12.60;24.10;;;;;;7362488;19;20074;-68
2022/10/07 00:07:15;;;;;;;10.18;4.60;;;12.50;24.40;;;;;;7384486;19;20038;-68
2022/10/07 00:09:45;;;;;;;9.77;5.50;;;12.60;24.80;;;;;;7368088;19;20002;-67
2022/10/07 00:12:17;;;;;;;10.48;4.97;;;12.60;24.20;;;;;;7367074;19;20002;-67
2022/10/07 00:14:47;;;;;;;8.48;4.35;;;12.50;24.00;;;;;;7362333;19;20011;-67
2022/10/07 00:17:17;;;;;;;7.10;4.38;;;12.50;24.80;;;;;;7360785;19;20015;-67
2022/10/07 00:19:47;;;;;;;13.10;5.07;;;12.60;24.60;;;;;;7366516;19;20015;-67
2022/10/07 00:22:16;;;;;;;8.40;4.60;;;12.50;23.50;;;;;;7388350;19;20046;-67
2022/10/07 00:24:46;;;;;;;12.88;4.65;;;12.50;23.00;;;;;;7359468;19;20011;-67
2022/10/07 00:27:19;;;;;;;12.13;5.40;;;12.50;23.40;;;;;;7356064;19;20010;-68
2022/10/07 00:29:48;;;;;;;17.52;5.40;;;12.50;23.80;;;;;;7364100;19;20014;-68
2022/10/07 00:32:18;;;;;;;9.88;5.63;;;12.50;24.40;;;;;;7367201;19;20351;-68
2022/10/07 00:34:48;;;;;;;13.73;5.18;;;12.40;25.00;;;;;;7361778;19;20018;-67
2022/10/07 00:37:18;;;;;;;11.55;4.68;;;12.50;25.10;;;;;;7359026;19;20011;-68
2022/10/07 00:39:47;;;;;;;12.25;5.18;;;12.50;24.50;;;;;;7388525;19;20359;-68
2022/10/07 00:42:20;;;;;;;9.00;4.63;;;12.40;23.60;;;;;;7366822;19;20010;-68
2022/10/07 00:44:50;;;;;;;11.13;5.28;;;12.50;23.40;;;;;;7363932;19;20299;-67
2022/10/07 00:47:26;;;;;;;10.32;4.90;;;12.40;23.20;;;;;;7362026;19;20963;-68
2022/10/07 00:49:59;;;;;;;7.22;4.85;;;12.40;21.50;;;;;;7367438;19;20011;-68
2022/10/07 00:52:32;;;;;;;9.45;4.85;;;12.40;21.90;;;;;;7365518;19;20006;-67
2022/10/07 00:55:05;;;;;;;14.05;5.25;;;12.30;22.80;;;;;;7385444;19;20038;-67
2022/10/07 00:57:40;;;;;;;12.38;5.63;;;12.30;23.60;;;;;;7360198;19;20046;-67
2022/10/07 01:00:12;;;;;;;12.13;5.65;;;12.30;23.60;;;;;;7366049;19;20017;-68
2022/10/07 01:02:42;;;;;;;11.75;5.28;;;12.30;23.60;;;;;;7364087;19;20559;-68
2022/10/07 01:05:16;;;;;;;12.35;5.47;;;12.20;22.80;;;;;;7366116;19;20377;-67
2022/10/07 01:07:47;;;;;;;13.45;5.82;;;12.20;23.50;;;;;;7359798;19;20014;-67
2022/10/07 01:10:18;;;;;;;9.02;5.13;;;12.20;23.50;;;;;;7367415;19;20473;-67
2022/10/07 01:13:04;;;;;;;12.10;5.10;;;12.20;24.20;;;;;;7384875;19;20423;-67
2022/10/07 01:15:39;;;;;;;10.10;5.60;;;12.20;23.60;;;;;;7365220;19;20010;-67
2022/10/07 01:18:16;;;;;;;9.02;6.00;;;12.10;23.90;;;;;;7360281;19;20010;-67
2022/10/07 01:20:51;;;;;;;10.55;5.45;;;12.10;24.70;;;;;;7367158;19;20010;-66
2022/10/07 01:23:43;;;;;;;13.63;5.93;;;12.10;25.20;;;;;;7362138;19;20003;-66
2022/10/07 01:26:47;;;;;;;10.80;5.88;;;12.00;25.10;;;;;;7365951;19;20010;-67
2022/10/07 01:29:22;;;;;;;15.63;5.70;;;11.90;24.90;;;;;;7354227;19;20022;-67
2022/10/07 01:31:58;;;;;;;12.70;5.35;;;11.90;26.00;;;;;;7367222;19;20014;-67
2022/10/07 01:34:28;;;;;;;10.55;5.65;;;11.90;25.40;;;;;;7360141;19;20010;-65
2022/10/07 01:37:01;;;;;;;9.90;5.50;;;11.90;26.30;;;;;;7380110;19;20047;-66
2022/10/07 01:39:36;;;;;;;17.27;6.20;;;12.00;25.60;;;;;;7364851;19;20015;-66
2022/10/07 01:42:09;;;;;;;11.70;5.80;;;11.90;24.70;;;;;;7366389;19;20063;-66
2022/10/07 01:44:40;;;;;;;10.07;5.60;;;12.00;25.00;;;;;;7360350;19;20017;-66
2022/10/07 01:47:10;;;;;;;13.40;5.72;;;12.10;25.10;;;;;;7362795;19;20077;-66
2022/10/07 01:49:39;;;;;;;12.07;5.68;;;12.10;23.50;;;;;;7363365;19;20010;-66
2022/10/07 01:52:22;;;;;;;9.10;5.78;;;11.90;25.70;;;;;;7384456;19;20014;-67
2022/10/07 01:55:08;;;;;;;14.88;5.30;;;11.90;25.80;;;;;;7383614;19;20467;-66
2022/10/07 01:57:48;;;;;;;9.52;4.93;;;11.90;25.30;;;;;;7359296;19;20006;-67
2022/10/07 02:00:19;;;;;;;12.63;5.18;;;11.90;26.90;;;;;;7365249;19;20018;-66
2022/10/07 02:03:03;;;;;;;10.15;5.13;;;11.90;26.60;;;;;;7364829;19;20014;-67
2022/10/07 02:05:38;;;;;;;;;;;12.00;26.20;;;;;;7363988;19;20014;-66
2022/10/07 02:08:22;;;;;;;8.10;5.15;;;12.00;26.50;;;;;;7357646;19;19935;-67
2022/10/07 02:11:06;;;;;;;11.63;5.55;;;12.00;25.70;;;;;;7365832;19;20007;-66
2022/10/07 02:13:43;;;;;;;12.87;5.10;;;11.90;25.20;;;;;;7359766;19;20011;-66
2022/10/07 02:16:20;;;;;;;10.55;5.43;;;11.80;26.00;;;;;;7364282;19;20575;-67
2022/10/07 02:18:53;;;;;;;10.15;5.07;;;11.90;26.70;;;;;;7383905;19;20030;-67
2022/10/07 02:21:26;;;;;;;12.60;5.55;;;11.90;27.30;;;;;;7364186;19;20014;-67
2022/10/07 02:23:57;;;;;;;7.78;4.93;;;11.90;26.60;;;;;;7359382;19;20363;-67
2022/10/07 02:26:30;;;;;;;8.73;5.10;;;11.90;26.80;;;;;;7361382;19;20015;-67
2022/10/07 02:29:06;;;;;;;7.65;4.88;;;11.90;27.90;;;;;;7362099;19;20039;-67
2022/10/07 02:31:39;;;;;;;12.23;5.30;;;11.90;27.70;;;;;;7363035;19;20029;-67
2022/10/07 02:34:11;;;;;;;12.45;5.60;;;11.90;27.40;;;;;;7381596;19;20050;-67
2022/10/07 02:36:53;;;;;;;12.13;5.00;;;12.00;26.90;;;;;;7360050;19;20056;-67
2022/10/07 02:39:23;;;;;;;15.10;5.82;;;12.00;27.40;;;;;;7362527;19;20339;-67
2022/10/07 02:42:02;;;;;;;8.82;5.30;;;11.90;27.50;;;;;;7364540;19;20361;-67
2022/10/07 02:44:39;;;;;;;11.68;5.20;;;12.00;27.80;;;;;;7358355;19;20013;-67
2022/10/07 02:47:15;;;;;;;11.13;4.72;;;11.80;27.10;;;;;;7359972;19;20010;-67
2022/10/07 02:49:52;;;;;;;11.35;4.80;;;11.80;28.30;;;;;;7361928;19;20018;-67
2022/10/07 02:52:23;;;;;;;11.63;5.03;;;11.90;28.70;;;;;;7365788;19;20335;-67
2022/10/07 02:54:58;;;;;;;10.07;5.00;;;11.90;28.10;;;;;;7382081;19;20021;-67
2022/10/07 02:57:31;;;;;;;10.82;4.80;;;11.80;27.90;;;;;;7357902;19;20008;-67
2022/10/07 03:00:05;;;;;;;12.00;5.57;;;11.90;28.70;;;;;;7362391;19;20011;-67
2022/10/07 03:02:44;;;;;;;13.43;5.78;;;12.10;28.30;;;;;;7364618;19;20277;-67
2022/10/07 03:05:18;;;;;;;12.18;5.65;;;12.10;26.90;;;;;;7360204;19;20030;-66
2022/10/07 03:07:48;;;;;;;10.23;5.53;;;12.10;25.70;;;;;;7358201;19;20010;-67
2022/10/07 03:10:18;;;;;;;14.10;6.18;;;12.10;26.20;;;;;;7361660;19;20014;-67
2022/10/07 03:12:49;;;;;;;12.13;6.13;;;12.10;25.90;;;;;;7383597;19;20030;-67
2022/10/07 03:15:21;;;;;;;14.23;5.70;;;12.20;25.50;;;;;;7362604;19;20006;-67
2022/10/07 03:17:51;;;;;;;13.55;5.50;;;12.20;24.40;;;;;;7358638;19;20006;-67
2022/10/07 03:20:21;;;;;;;9.77;5.72;;;12.20;24.90;;;;;;7368552;19;20466;-67
2022/10/07 03:22:51;;;;;;;11.25;5.88;;;12.20;24.80;;;;;;7369270;19;20474;-67
2022/10/07 03:25:21;;;;;;;10.27;5.63;;;12.20;24.60;;;;;;7369804;19;20010;-67
2022/10/07 03:27:51;;;;;;;12.77;5.55;;;12.30;25.20;;;;;;7384251;19;20038;-67
2022/10/07 03:30:24;;;;;;;13.60;5.03;;;12.30;25.80;;;;;;7367931;19;20007;-67
2022/10/07 03:32:54;;;;;;;11.85;5.80;;;12.20;25.10;;;;;;7367231;19;20021;-67
2022/10/07 03:35:23;;;;;;;10.32;5.93;;;12.30;25.80;;;;;;7368881;19;20006;-67
2022/10/07 03:37:53;;;;;;;12.65;5.43;;;12.30;24.30;;;;;;7364861;19;20015;-67
2022/10/07 03:40:23;;;;;;;8.30;5.22;;;12.40;23.70;;;;;;7369897;19;20015;-66
2022/10/07 03:42:53;;;;;;;8.80;5.40;;;12.40;23.70;;;;;;7389267;19;20014;-66
2022/10/07 03:45:25;;;;;;;8.35;4.90;;;12.40;23.70;;;;;;7368962;19;20478;-67
2022/10/07 03:47:55;;;;;;;9.82;5.43;;;12.40;23.80;;;;;;7365883;19;20018;-66
2022/10/07 03:50:25;;;;;;;11.38;5.47;;;12.40;23.70;;;;;;7367776;19;20014;-66
2022/10/07 03:52:55;;;;;;;10.93;5.03;;;12.40;23.70;;;;;;7367825;19;20015;-67
2022/10/07 03:55:24;;;;;;;12.40;5.40;;;12.30;25.80;;;;;;7369355;19;20462;-67
2022/10/07 03:57:56;;;;;;;8.80;4.93;;;12.30;27.00;;;;;;7383605;19;20050;-66
2022/10/07 04:00:31;;;;;;;12.20;5.25;;;12.20;27.10;;;;;;7369579;19;20002;-66
2022/10/07 04:03:00;;;;;;;11.23;5.25;;;12.10;27.60;;;;;;7364465;19;20636;-66
2022/10/07 04:05:30;;;;;;;11.23;4.70;;;12.00;28.40;;;;;;7368194;19;20007;-66
2022/10/07 04:08:00;;;;;;;9.80;4.80;;;12.00;29.30;;;;;;7363881;19;20014;-67
2022/10/07 04:10:30;;;;;;;8.82;4.57;;;11.90;28.60;;;;;;7368493;19;20043;-66
2022/10/07 04:13:00;;;;;;;12.20;5.22;;;12.00;29.50;;;;;;7386554;19;20006;-66
2022/10/07 04:15:33;;;;;;;16.75;5.60;;;11.90;30.00;;;;;;7368206;19;20564;-67
2022/10/07 04:18:03;;;;;;;10.45;5.30;;;12.00;29.90;;;;;;7364335;19;20025;-67
2022/10/07 04:20:32;;;;;;;12.23;5.53;;;11.90;30.10;;;;;;7367581;19;20017;-66
2022/10/07 04:23:02;;;;;;;7.90;4.93;;;11.90;30.10;;;;;;7363351;19;20042;-66
2022/10/07 04:25:36;;;;;;;9.10;4.82;;;11.90;30.20;;;;;;7368272;19;20015;-66
2022/10/07 04:28:08;;;;;;;10.15;4.97;;;11.90;30.10;;;;;;7383536;19;20525;-67
2022/10/07 04:30:42;;;;;;;10.77;5.50;;;11.80;30.10;;;;;;7364224;19;20026;-67
2022/10/07 04:33:13;;;;;;;12.98;5.53;;;11.80;30.40;;;;;;7362677;19;20437;-67
2022/10/07 04:35:43;;;;;;;9.10;5.43;;;11.80;31.30;;;;;;7366807;19;20031;-66
2022/10/07 04:38:14;;;;;;;12.13;4.68;;;11.80;31.50;;;;;;7364459;19;20006;-67
2022/10/07 04:40:46;;;;;;;11.65;5.03;;;11.80;31.00;;;;;;7367524;19;20597;-67
2022/10/07 04:43:22;;;;;;;9.85;5.20;;;11.80;31.70;;;;;;7362962;19;20017;-67
2022/10/07 04:45:56;;;;;;;11.27;5.07;;;11.70;31.90;;;;;;7388703;19;20003;-67
2022/10/07 04:48:26;;;;;;;14.63;5.18;;;11.80;32.70;;;;;;7362239;19;20034;-67
2022/10/07 04:50:56;;;;;;;11.07;5.53;;;11.80;32.90;;;;;;7365793;19;20018;-66
2022/10/07 04:53:26;;;;;;;10.77;5.50;;;11.80;32.40;;;;;;7362715;19;20014;-66
2022/10/07 04:55:56;;;;;;;8.95;5.15;;;11.80;32.60;;;;;;7367059;19;20014;-67
2022/10/07 04:58:26;;;;;;;12.18;5.15;;;11.80;32.40;;;;;;7362945;19;20498;-67
2022/10/07 05:01:00;;;;;;;10.23;5.18;;;11.80;33.30;;;;;;7389701;19;20010;-66
2022/10/07 05:03:31;;;;;;;10.02;4.95;;;11.70;34.30;;;;;;7361578;19;20585;-67
2022/10/07 05:06:04;;;;;;;9.77;5.10;;;11.70;34.20;;;;;;7367550;19;20375;-67
2022/10/07 05:08:35;;;;;;;10.10;5.40;;;11.70;34.20;;;;;;7362642;19;20034;-67
2022/10/07 05:11:05;;;;;;;16.52;5.85;;;11.80;34.60;;;;;;7365677;19;20010;-66
2022/10/07 05:13:35;;;;;;;14.02;5.65;;;11.70;34.80;;;;;;7361356;19;20015;-66
2022/10/07 05:16:08;;;;;;;11.10;5.28;;;11.70;35.30;;;;;;7388526;19;20026;-66
2022/10/07 05:18:38;;;;;;;11.87;5.70;;;11.70;34.30;;;;;;7360747;19;20839;-67
2022/10/07 05:21:09;;;;;;;11.63;5.55;;;11.70;34.80;;;;;;7364740;19;20257;-67
2022/10/07 05:23:39;;;;;;;9.30;5.03;;;11.70;35.50;;;;;;7360423;19;20565;-66
2022/10/07 05:26:09;;;;;;;9.68;5.65;;;11.80;35.10;;;;;;7365821;19;20010;-66
2022/10/07 05:28:41;;;;;;;10.70;5.60;;;11.80;34.90;;;;;;7361988;19;20010;-66
2022/10/07 05:31:15;;;;;;;8.50;5.38;;;11.80;34.50;;;;;;7363958;19;20355;-68
2022/10/07 05:33:48;;;;;;;11.40;5.78;;;11.80;34.30;;;;;;7380431;19;20583;-66
2022/10/07 05:36:18;;;;;;;11.20;5.88;;;11.80;34.30;;;;;;7361731;19;20086;-68
2022/10/07 05:38:48;;;;;;;10.32;5.45;;;11.80;33.40;;;;;;7362651;19;20014;-66
2022/10/07 05:41:20;;;;;;;7.47;5.05;;;11.80;34.40;;;;;;7362895;19;20017;-67
2022/10/07 05:43:50;;;;;;;17.33;6.00;;;11.80;34.40;;;;;;7359512;19;20002;-66
2022/10/07 05:46:23;;;;;;;10.80;5.70;;;11.80;34.30;;;;;;7363596;19;20038;-67
2022/10/07 05:48:54;;;;;;;14.73;5.68;;;11.90;34.40;;;;;;7384917;19;20043;-67
2022/10/07 05:51:26;;;;;;;9.85;5.75;;;12.00;34.10;;;;;;7364382;19;20342;-66
2022/10/07 05:53:57;;;;;;;13.20;5.88;;;11.90;33.00;;;;;;7358349;19;20039;-67
2022/10/07 05:56:27;;;;;;;11.13;5.90;;;12.10;32.80;;;;;;7360994;19;20014;-66
2022/10/07 05:58:57;;;;;;;18.13;6.53;;;12.10;31.20;;;;;;7363694;19;20045;-68
2022/10/07 06:01:30;;;;;;;11.07;6.60;;;12.10;31.40;;;;;;7365676;19;20011;-66
2022/10/07 06:04:00;;;;;;;12.52;6.25;;;12.10;30.30;;;;;;7379985;19;20509;-67
2022/10/07 06:06:30;;;;;;;9.68;6.70;;;12.10;30.40;;;;;;7359774;19;20017;-65
2022/10/07 06:13:06;;;;;;;15.00;6.72;;;12.20;30.30;;;;;;7364279;19;20534;-67
2022/10/07 06:14:32;;;;;;;13.20;6.40;;;12.30;28.20;;;;;;7358252;19;20025;-67
2022/10/07 06:17:04;;;;;;;13.35;6.45;;;12.40;28.90;;;;;;7358905;19;20070;-68
2022/10/07 06:19:34;;;;;;;10.02;5.90;;;12.40;28.70;;;;;;7362500;19;20041;-66
2022/10/07 06:22:04;;;;;;;11.27;6.03;;;12.40;28.30;;;;;;7387219;19;20010;-67
2022/10/07 06:24:34;;;;;;;14.30;6.53;;;12.50;27.20;;;;;;7357359;19;20030;-67
2022/10/07 06:27:04;;;;;;;16.73;6.60;;;12.60;27.40;;;;;;7357153;19;20022;-67
2022/10/07 06:29:34;;;;;;;11.77;5.30;;;12.70;27.30;;;;;;7362130;19;20030;-68
2022/10/07 06:32:06;;;;;;;14.95;5.82;;;12.80;26.30;;;;;;7362721;19;20014;-67
2022/10/07 06:34:36;;;;;;;16.27;5.45;;;12.70;25.60;;;;;;7357251;19;20011;-68
2022/10/07 06:37:06;;;;;;;12.18;5.57;;;12.70;26.40;;;;;;7380464;19;20379;-66
2022/10/07 06:39:36;;;;;;;9.77;5.88;;;12.70;26.40;;;;;;7361633;19;20014;-67
2022/10/07 06:42:06;;;;;;;9.20;5.53;;;12.80;26.50;;;;;;7363903;19;20013;-67
2022/10/07 06:44:36;;;;;;;12.25;5.57;;;12.80;26.50;;;;;;7357704;19;20006;-67
2022/10/07 06:47:08;;;;;;;14.13;5.70;;;12.90;26.20;;;;;;7357130;19;20050;-67
2022/10/07 06:49:40;;;;;;;13.73;6.00;;;12.80;25.70;;;;;;7362815;19;20072;-66
2022/10/07 06:52:11;;;;;;;10.23;5.40;;;13.00;25.10;;;;;;7374385;19;20557;-68
2022/10/07 06:54:40;;;;;;;12.00;6.30;;;13.00;24.10;;;;;;7382751;19;20014;-66
2022/10/07 06:57:10;;;;;;;10.55;5.38;;;13.10;24.20;;;;;;7362906;19;20522;-67
2022/10/07 07:00:00;;;;;;;12.60;5.72;;;13.10;24.40;;;;;;7368343;19;20043;-67
2022/10/07 07:02:34;;;;;;;11.23;6.15;;;13.30;23.50;;;;;;7371171;19;20386;-66
2022/10/07 07:05:07;;;;;;;10.98;6.10;;;13.40;21.60;;;;;;7364736;19;20011;-66
2022/10/07 07:07:37;;;;;;;13.63;6.13;;;13.60;22.10;;;;;;7363903;19;20010;-67
2022/10/07 07:10:08;;;;;;;13.05;6.13;;;13.70;20.80;;;;;;7390441;19;20002;-67
2022/10/07 07:12:38;;;;;;;11.18;5.88;;;13.80;18.90;;;;;;7366200;19;20042;-66
2022/10/07 07:15:09;;;;;;;11.23;6.15;;;13.90;17.00;;;;;;7364655;19;20019;-67
2022/10/07 07:17:41;;;;;;;14.07;6.68;;;14.10;16.50;;;;;;7363985;19;20006;-67
2022/10/07 07:20:15;;;;;;;10.40;6.00;;;14.20;15.10;;;;;;7369559;19;20014;-67
2022/10/07 07:22:45;;;;;;;14.57;6.50;;;14.20;13.50;;;;;;7370532;19;20456;-67
2022/10/07 07:25:15;;;;;;;13.43;5.90;;;14.20;13.20;;;;;;7366044;19;20018;-66
2022/10/07 07:27:46;;;;;;;12.00;6.28;;;14.40;13.80;;;;;;7384047;19;20038;-66
2022/10/07 07:30:22;;;;;;;12.43;6.53;;;14.40;12.50;;;;;;7368392;19;20021;-67
2022/10/07 07:32:55;;;;;;;11.07;6.43;;;14.70;11.30;;;;;;7366567;19;20054;-67
2022/10/07 07:35:26;;;;;;;17.05;6.00;;;15.00;10.60;;;;;;7365583;19;20017;-66
2022/10/07 07:37:56;;;;;;;13.05;5.80;;;15.30;9.20;;;;;;7363754;19;20011;-67
2022/10/07 07:40:26;;;;;;;13.38;5.82;;;15.40;6.90;;;;;;7368529;19;20106;-67
2022/10/07 07:42:56;;;;;;;11.18;5.70;;;15.30;6.20;;;;;;7389194;19;20006;-67
2022/10/07 07:45:26;;;;;;;10.05;5.55;;;15.70;6.30;;;;;;7364538;19;20480;-66
2022/10/07 07:47:58;;;;;;;12.95;5.88;;;15.80;4.20;;;;;;7362691;19;20010;-66
2022/10/07 07:50:28;;;;;;;8.93;5.50;;;15.60;4.10;;;;;;7369377;19;20316;-67
2022/10/07 07:52:59;;;;;;;13.73;6.05;;;15.70;5.20;;;;;;7366501;19;20035;-68
2022/10/07 07:55:28;;;;;;;9.93;5.80;;;15.90;4.90;;;;;;7364402;19;20074;-68
2022/10/07 07:57:59;;;;;;;10.18;5.18;;;16.10;3.90;;;;;;7382920;19;20039;-66
2022/10/07 08:00:29;;;;;;;9.85;5.70;;;16.10;3.40;;;;;;7367161;19;20006;-67
2022/10/07 08:03:01;;;;;;;10.52;5.78;;;16.40;4.10;;;;;;7364884;19;20010;-67
2022/10/07 08:05:32;;;;;;;10.48;5.57;;;16.50;2.50;;;;;;7361315;19;20105;-67
2022/10/07 08:08:02;;;;;;;10.98;5.55;;;16.70;1.70;;;;;;7359248;19;20452;-68
2022/10/07 08:10:32;;;;;;;11.00;5.60;;;16.60;1.00;;;;;;7365489;19;20018;-66
2022/10/07 08:13:02;;;;;;;11.15;5.50;;;16.90;1.00;;;;;;7384338;19;20014;-67
2022/10/07 08:15:32;;;;;;;10.93;5.82;;;16.80;1.00;;;;;;7363690;19;20015;-66
2022/10/07 08:18:06;;;;;;;12.27;5.82;;;16.80;1.00;;;;;;7361944;19;20018;-67
2022/10/07 08:20:37;;;;;;;9.40;5.63;;;17.00;1.00;;;;;;7365588;19;20019;-67
2022/10/07 08:23:08;;;;;;;11.18;5.70;;;17.00;1.00;;;;;;7363885;19;20010;-68
2022/10/07 08:25:37;;;;;;;16.85;5.90;;;17.10;1.00;;;;;;7362737;19;20478;-68
2022/10/07 08:28:07;;;;;;;19.25;6.93;;;17.10;1.00;;;;;;7382279;19;20006;-67
2022/10/07 08:30:38;;;;;;;13.02;6.38;;;17.40;1.00;;;;;;7364059;19;20011;-67
2022/10/07 08:33:10;;;;;;;10.98;5.85;;;17.50;1.00;;;;;;7360826;19;20489;-68
2022/10/07 08:35:40;;;;;;;8.95;5.97;;;17.50;1.00;;;;;;7363388;19;20010;-67
2022/10/07 08:38:10;;;;;;;14.13;5.57;;;17.90;1.00;;;;;;7361020;19;20006;-67
2022/10/07 08:40:48;;;;;;;10.32;5.90;;;17.70;1.00;;;;;;7364609;19;20419;-67
2022/10/07 08:43:20;;;;;;;10.60;5.63;;;17.70;1.00;;;;;;7362750;19;20018;-67
2022/10/07 08:45:50;;;;;;;13.35;5.88;;;17.60;1.00;;;;;;7384877;19;20522;-67
2022/10/07 08:48:30;;;;;;;12.68;6.20;;;17.90;1.00;;;;;;7359375;19;20003;-68
2022/10/07 08:51:06;;;;;;;10.88;5.38;;;17.90;1.00;;;;;;7363687;19;20010;-68
2022/10/07 08:53:39;;;;;;;9.27;5.50;;;18.00;1.00;;;;;;7356396;19;20014;-68
2022/10/07 08:56:14;;;;;;;13.32;5.38;;;17.90;1.00;;;;;;7363993;19;20026;-67
2022/10/07 08:59:00;;;;;;;12.80;5.72;;;18.10;1.00;;;;;;7362286;19;20466;-67
2022/10/07 09:01:46;;;;;;;8.95;5.40;;;18.10;1.00;;;;;;7362033;19;20456;-67
2022/10/07 09:04:31;;;;;;;9.93;5.43;;;18.10;1.00;;;;;;7357232;19;20466;-69
2022/10/07 09:07:06;;;;;;;12.13;5.72;;;18.40;1.00;;;;;;7378754;19;20014;-67
2022/10/07 09:09:41;;;;;;;7.70;4.85;;;18.70;1.00;;;;;;7363318;19;20012;-68
2022/10/07 09:12:21;;;;;;;9.77;5.13;;;18.60;1.00;;;;;;7363624;19;20489;-66
2022/10/07 09:14:56;;;;;;;9.32;5.20;;;18.80;1.00;;;;;;7358204;19;20474;-67
2022/10/07 09:17:30;;;;;;;8.65;4.80;;;18.60;1.00;;;;;;7356761;19;20011;-67
2022/10/07 09:20:15;;;;;;;12.50;5.45;;;18.80;1.00;;;;;;7364196;19;20503;-68
2022/10/07 09:22:48;;;;;;;9.90;5.20;;;18.80;1.00;;;;;;7363807;19;20010;-67
2022/10/07 09:25:22;;;;;;;9.88;5.43;;;18.90;1.00;;;;;;7361251;19;20019;-68
2022/10/07 09:27:53;;;;;;;8.50;4.80;;;18.90;1.00;;;;;;7379972;19;20019;-67
2022/10/07 09:30:23;;;;;;;11.40;4.65;;;19.10;1.00;;;;;;7362848;19;20015;-68
2022/10/07 09:32:55;;;;;;;10.60;4.20;;;18.70;1.00;;;;;;7361104;19;20011;-67
2022/10/07 09:35:31;;;;;;;9.38;4.65;;;19.10;1.00;;;;;;7353849;19;20007;-67
2022/10/07 09:38:03;;;;;;;11.80;4.60;;;19.00;1.00;;;;;;7347448;19;20342;-68
2022/10/07 09:41:13;;;;;;;8.60;4.40;;;19.20;1.00;;;;;;7352456;19;20010;-67
2022/10/07 09:43:31;;;;;;;8.88;4.53;;;19.30;1.00;;;;;;7348380;19;20020;-67
2022/10/07 09:46:03;;;;;;;13.88;4.45;;;19.30;1.00;;;;;;7375201;19;20021;-68
2022/10/07 09:48:36;;;;;;;8.20;4.57;;;19.30;1.00;;;;;;7350076;19;20084;-67
2022/10/07 09:51:24;;;;;;;9.15;4.70;;;19.30;1.00;;;;;;7352389;19;20067;-68
2022/10/07 09:54:01;;;;;;;14.60;5.10;;;19.20;1.00;;;;;;7345552;19;20018;-66
2022/10/07 09:56:40;;;;;;;6.43;4.55;;;19.20;1.00;;;;;;7349089;19;20403;-68
2022/10/07 09:59:31;;;;;;;9.18;4.88;;;19.30;1.00;;;;;;7353531;19;20006;-68
2022/10/07 10:02:04;;;;;;;7.35;4.25;;;19.40;1.00;;;;;;7353071;19;20026;-68
2022/10/07 10:04:37;;;;;;;14.07;4.47;;;19.50;1.00;;;;;;7346035;19;20010;-68
2022/10/07 10:07:20;;;;;;;7.80;4.03;;;19.60;1.00;;;;;;7368886;19;20014;-67
2022/10/07 10:09:53;;;;;;;6.57;3.95;;;19.70;1.00;;;;;;7351192;19;20018;-68
2022/10/07 10:12:25;;;;;;;10.70;4.22;;;19.60;1.00;;;;;;7353740;19;20478;-68
2022/10/07 10:14:56;;;;;;;8.18;4.07;;;19.60;1.00;;;;;;7346402;19;20038;-67
2022/10/07 10:17:30;;;;;;;8.45;3.70;;;19.70;1.00;;;;;;7349331;19;20002;-67
2022/10/07 10:20:32;;;;;;;5.57;3.58;;;19.50;1.00;;;;;;7352514;19;20017;-69
2022/10/07 10:23:26;;;;;;;8.77;4.13;;;19.30;1.00;;;;;;7350923;19;20034;-68
2022/10/07 10:28:58;;;;;;;11.15;5.05;;;19.60;1.00;;;;;;7357315;19;20533;-67
2022/10/07 10:31:36;;;;;;;7.93;4.35;;;19.60;1.00;;;;;;7357304;19;20018;-67
2022/10/07 10:34:22;;;;;;;6.75;4.10;;;19.50;1.00;;;;;;7373370;19;20078;-68
2022/10/07 10:37:02;;;;;;;10.07;4.05;;;19.70;1.00;;;;;;7353259;19;20453;-66
2022/10/07 10:39:46;;;;;;;7.88;3.80;;;19.60;1.00;;;;;;7358691;19;20014;-67
2022/10/07 10:42:21;;;;;;;9.70;3.90;;;19.60;1.00;;;;;;7360967;19;20118;-68
2022/10/07 10:45:06;;;;;;;8.40;4.20;;;19.80;1.00;;;;;;7354377;19;20010;-67
2022/10/07 10:47:50;;;;;;;7.47;4.35;;;20.00;1.00;;;;;;7356231;19;20019;-67
2022/10/07 10:50:31;;;;;;;7.35;4.07;;;19.50;1.00;;;;;;7359197;19;20386;-68
2022/10/07 10:53:13;;;;;;;9.45;3.67;;;19.70;1.00;;;;;;7357997;19;20021;-67
2022/10/07 10:56:00;;;;;;;13.20;4.15;;;19.90;1.00;;;;;;7358957;19;20090;-67
2022/10/07 10:58:41;;;;;;;9.43;4.00;;;20.00;1.00;;;;;;7357244;19;20499;-67
2022/10/07 11:01:22;;;;;;;5.30;3.65;;;19.90;1.00;;;;;;7362577;19;20010;-67
2022/10/07 11:04:17;;;;;;;7.40;4.03;;;19.60;1.00;;;;;;7374800;19;20270;-66
2022/10/07 11:06:51;;;;;;;6.50;3.67;;;19.70;1.00;;;;;;7352782;19;20014;-67
2022/10/07 11:09:28;;;;;;;6.53;3.85;;;19.90;1.00;;;;;;7357156;19;20015;-67
2022/10/07 11:12:05;;;;;;;10.23;4.32;;;20.00;1.00;;;;;;7359532;19;20048;-67
2022/10/07 11:14:50;;;;;;;8.18;4.40;;;20.10;1.00;;;;;;7353011;19;20025;-68
2022/10/07 11:17:31;;;;;;;8.20;4.30;;;20.10;1.00;;;;;;7354433;19;20302;-67
2022/10/07 11:20:14;;;;;;;5.78;4.13;;;20.20;1.00;;;;;;7358894;19;20510;-67
2022/10/07 11:22:52;;;;;;;10.65;4.72;;;20.40;1.00;;;;;;7359870;19;20018;-69
2022/10/07 11:25:34;;;;;;;7.18;4.22;;;20.40;1.00;;;;;;7354459;19;20014;-67
2022/10/07 11:28:16;;;;;;;6.93;4.25;;;20.50;1.00;;;;;;7374420;19;20105;-67
2022/10/07 11:30:53;;;;;;;7.35;4.28;;;20.60;1.00;;;;;;7358774;19;20045;-67
2022/10/07 11:33:30;;;;;;;7.53;4.45;;;20.20;1.00;;;;;;7353131;19;20026;-67
2022/10/07 11:36:09;;;;;;;7.38;4.50;;;20.30;1.00;;;;;;7355415;19;20014;-66
2022/10/07 11:38:40;;;;;;;6.80;5.05;;;20.20;1.00;;;;;;7354893;19;20014;-67
2022/10/07 11:41:15;;;;;;;8.65;5.63;;;20.30;1.00;;;;;;7357519;19;20043;-67
2022/10/07 11:43:55;;;;;;;13.23;5.70;;;20.30;1.00;;;;;;7353013;19;20002;-67
2022/10/07 11:46:28;;;;;;;10.85;4.95;;;20.00;1.00;;;;;;7353187;19;20025;-67
2022/10/07 11:49:04;;;;;;;7.03;4.72;;;19.90;1.00;;;;;;7381528;19;20044;-68
2022/10/07 11:51:39;;;;;;;10.60;5.32;;;20.20;1.00;;;;;;7357314;19;20475;-67
2022/10/07 11:54:16;;;;;;;8.05;5.45;;;19.90;1.00;;;;;;7350318;19;20424;-67
2022/10/07 11:56:49;;;;;;;7.35;4.95;;;20.00;1.00;;;;;;7351499;19;20014;-67
2022/10/07 11:59:44;;;;;;;7.78;4.90;;;20.00;1.00;;;;;;7358190;19;20013;-67
2022/10/07 12:02:40;;;;;;;7.90;5.22;;;20.00;1.00;;;;;;7356707;19;20058;-67
2022/10/07 12:05:45;;;;;;;9.57;5.28;;;19.90;1.00;;;;;;7351256;19;20007;-67
2022/10/07 12:08:35;;;;;;;10.30;5.20;;;20.00;1.00;;;;;;7352758;19;20014;-67
2022/10/07 12:11:44;;;;;;;11.23;4.45;;;20.40;1.00;;;;;;7355725;19;20116;-67
2022/10/07 12:14:32;;;;;;;5.32;4.50;;;20.60;1.00;;;;;;7349525;19;20016;-68
2022/10/07 12:17:19;;;;;;;5.75;4.30;;;20.80;1.00;;;;;;7350527;19;20010;-68
2022/10/07 12:20:09;;;;;;;8.10;4.90;;;21.10;1.00;;;;;;7355867;19;20011;-67
2022/10/07 12:22:39;;;;;;;10.85;5.30;;;20.90;1.00;;;;;;7357117;19;20044;-67
2022/10/07 12:25:33;;;;;;;8.50;4.68;;;20.70;1.00;;;;;;7371673;19;20006;-68
2022/10/07 12:28:03;;;;;;;9.68;4.70;;;20.80;1.00;;;;;;7348251;19;20346;-66
2022/10/07 12:30:43;;;;;;;12.02;5.75;;;20.70;1.00;;;;;;7356859;19;20073;-67
2022/10/07 12:33:30;;;;;;;9.68;5.25;;;20.70;1.00;;;;;;7352474;19;20014;-67
2022/10/07 12:36:01;;;;;;;10.80;4.82;;;20.80;1.00;;;;;;7353506;19;20448;-67
2022/10/07 12:38:31;;;;;;;10.23;5.13;;;21.00;1.00;;;;;;7353218;19;20338;-67
2022/10/07 12:41:25;;;;;;;6.97;5.05;;;21.00;1.00;;;;;;7356307;19;20105;-68
2022/10/07 12:44:05;;;;;;;8.85;5.03;;;20.90;1.00;;;;;;7351370;19;20010;-67
2022/10/07 12:46:44;;;;;;;9.77;4.80;;;20.70;1.00;;;;;;7353307;19;20018;-67
2022/10/07 12:49:22;;;;;;;13.27;5.63;;;20.90;1.00;;;;;;7354917;19;20175;-70
2022/10/07 12:51:56;;;;;;;8.88;5.70;;;20.80;1.00;;;;;;7375688;19;20015;-67
2022/10/07 12:54:33;;;;;;;9.07;5.97;;;20.60;1.00;;;;;;7349944;19;20011;-67
2022/10/07 12:57:12;;;;;;;8.95;5.18;;;20.70;1.00;;;;;;7348972;19;20014;-68
2022/10/07 12:59:54;;;;;;;7.68;4.78;;;20.60;1.00;;;;;;7354978;19;20006;-68
2022/10/07 13:02:56;;;;;;;11.85;5.00;;;20.90;1.00;;;;;;7356891;19;20007;-65
2022/10/07 13:05:59;;;;;;;8.90;5.43;;;20.80;1.00;;;;;;7349609;19;20358;-67
2022/10/07 13:09:01;;;;;;;5.35;4.47;;;20.60;1.00;;;;;;7353223;19;20030;-67
2022/10/07 13:12:01;;;;;;;10.32;5.00;;;20.20;1.00;;;;;;7353665;19;20011;-67
2022/10/07 13:14:40;;;;;;;7.45;4.95;;;20.40;1.00;;;;;;7351412;19;20090;-68
2022/10/07 13:17:24;;;;;;;8.05;5.30;;;20.40;1.00;;;;;;7351643;19;20131;-67
2022/10/07 13:20:03;;;;;;;10.38;5.55;;;20.50;1.00;;;;;;7355922;19;20011;-67
2022/10/07 13:22:32;;;;;;;7.45;5.45;;;20.40;1.00;;;;;;7355943;19;20020;-67
2022/10/07 13:25:05;;;;;;;6.68;5.50;;;20.30;1.00;;;;;;7372850;19;20588;-67
2022/10/07 13:27:37;;;;;;;9.57;5.50;;;20.40;1.00;;;;;;7350550;19;20006;-67
2022/10/07 13:30:35;;;;;;;7.45;5.00;;;20.40;1.00;;;;;;7354852;19;20019;-67
2022/10/07 13:33:25;;;;;;;13.02;5.88;;;20.50;1.00;;;;;;7353701;19;20030;-67